sensor_id;sensor_type;location;lat;lon;timestamp;P1;durP1;ratioP1;P2;durP2;ratioP2
10096;SDS011;5087;42.662;23.466;2022-10-17T00:00:44;1.20;;;1.20;;
10096;SDS011;5087;42.662;23.466;2022-10-17T00:03:11;1.50;;;1.50;;
10096;SDS011;5087;42.662;23.466;2022-10-17T00:05:39;1.30;;;1.30;;
10096;SDS011;5087;42.662;23.466;2022-10-17T00:08:07;1.90;;;1.90;;
10096;SDS011;5087;42.662;23.466;2022-10-17T00:10:35;1.40;;;1.40;;
10096;SDS011;5087;42.662;23.466;2022-10-17T00:13:02;1.40;;;1.40;;
10096;SDS011;5087;42.662;23.466;2022-10-17T00:15:31;1.40;;;1.40;;
10096;SDS011;5087;42.662;23.466;2022-10-17T00:17:58;1.30;;;1.30;;
10096;SDS011;5087;42.662;23.466;2022-10-17T00:20:28;1.20;;;1.20;;
10096;SDS011;5087;42.662;23.466;2022-10-17T00:23:00;1.40;;;1.40;;
10096;SDS011;5087;42.662;23.466;2022-10-17T00:25:30;1.17;;;1.17;;
10096;SDS011;5087;42.662;23.466;2022-10-17T00:27:59;1.00;;;1.00;;
10096;SDS011;5087;42.662;23.466;2022-10-17T00:30:26;1.00;;;1.00;;
10096;SDS011;5087;42.662;23.466;2022-10-17T00:32:55;1.20;;;1.20;;
10096;SDS011;5087;42.662;23.466;2022-10-17T00:35:24;1.40;;;1.40;;
10096;SDS011;5087;42.662;23.466;2022-10-17T00:37:51;1.30;;;1.30;;
10096;SDS011;5087;42.662;23.466;2022-10-17T00:40:18;1.40;;;1.40;;
10096;SDS011;5087;42.662;23.466;2022-10-17T00:42:45;1.40;;;1.40;;
10096;SDS011;5087;42.662;23.466;2022-10-17T00:45:18;1.20;;;1.20;;
10096;SDS011;5087;42.662;23.466;2022-10-17T00:47:49;1.57;;;1.57;;
10096;SDS011;5087;42.662;23.466;2022-10-17T00:50:22;1.10;;;1.10;;
10096;SDS011;5087;42.662;23.466;2022-10-17T00:52:50;1.00;;;1.00;;
10096;SDS011;5087;42.662;23.466;2022-10-17T00:55:22;1.40;;;1.40;;
10096;SDS011;5087;42.662;23.466;2022-10-17T00:57:54;1.30;;;1.30;;
10096;SDS011;5087;42.662;23.466;2022-10-17T01:00:24;1.40;;;1.40;;
10096;SDS011;5087;42.662;23.466;2022-10-17T01:02:52;1.20;;;1.20;;
10096;SDS011;5087;42.662;23.466;2022-10-17T01:05:21;1.20;;;1.20;;
10096;SDS011;5087;42.662;23.466;2022-10-17T01:07:49;1.20;;;1.20;;
10096;SDS011;5087;42.662;23.466;2022-10-17T01:10:19;1.13;;;1.13;;
10096;SDS011;5087;42.662;23.466;2022-10-17T01:12:54;0.90;;;0.90;;
10096;SDS011;5087;42.662;23.466;2022-10-17T01:15:35;0.80;;;0.80;;
10096;SDS011;5087;42.662;23.466;2022-10-17T01:18:12;0.70;;;0.70;;
10096;SDS011;5087;42.662;23.466;2022-10-17T01:20:52;0.80;;;0.80;;
10096;SDS011;5087;42.662;23.466;2022-10-17T01:23:42;0.70;;;0.70;;
10096;SDS011;5087;42.662;23.466;2022-10-17T01:26:28;4.27;;;1.83;;
10096;SDS011;5087;42.662;23.466;2022-10-17T01:29:13;0.70;;;0.70;;
10096;SDS011;5087;42.662;23.466;2022-10-17T01:31:57;0.70;;;0.70;;
10096;SDS011;5087;42.662;23.466;2022-10-17T01:34:30;0.70;;;0.70;;
10096;SDS011;5087;42.662;23.466;2022-10-17T01:37:01;0.80;;;0.80;;
10096;SDS011;5087;42.662;23.466;2022-10-17T01:39:35;0.80;;;0.80;;
10096;SDS011;5087;42.662;23.466;2022-10-17T01:42:10;0.80;;;0.80;;
10096;SDS011;5087;42.662;23.466;2022-10-17T01:44:43;0.70;;;0.70;;
10096;SDS011;5087;42.662;23.466;2022-10-17T01:47:18;0.83;;;0.83;;
10096;SDS011;5087;42.662;23.466;2022-10-17T01:49:48;0.70;;;0.70;;
10096;SDS011;5087;42.662;23.466;2022-10-17T01:52:19;0.80;;;0.80;;
10096;SDS011;5087;42.662;23.466;2022-10-17T01:54:53;0.67;;;0.67;;
10096;SDS011;5087;42.662;23.466;2022-10-17T01:57:26;2.77;;;1.73;;
10096;SDS011;5087;42.662;23.466;2022-10-17T01:59:57;0.70;;;0.70;;
10096;SDS011;5087;42.662;23.466;2022-10-17T02:02:39;0.90;;;0.90;;
10096;SDS011;5087;42.662;23.466;2022-10-17T02:05:09;0.90;;;0.90;;
10096;SDS011;5087;42.662;23.466;2022-10-17T02:07:36;1.00;;;1.00;;
10096;SDS011;5087;42.662;23.466;2022-10-17T02:10:08;1.03;;;1.03;;
10096;SDS011;5087;42.662;23.466;2022-10-17T02:12:44;1.10;;;1.10;;
10096;SDS011;5087;42.662;23.466;2022-10-17T02:18:25;0.90;;;0.90;;
10096;SDS011;5087;42.662;23.466;2022-10-17T02:21:05;0.90;;;0.90;;
10096;SDS011;5087;42.662;23.466;2022-10-17T02:23:38;1.00;;;1.00;;
10096;SDS011;5087;42.662;23.466;2022-10-17T02:26:14;0.80;;;0.80;;
10096;SDS011;5087;42.662;23.466;2022-10-17T02:28:50;1.13;;;1.13;;
10096;SDS011;5087;42.662;23.466;2022-10-17T02:31:27;0.90;;;0.90;;
10096;SDS011;5087;42.662;23.466;2022-10-17T02:34:01;0.90;;;0.90;;
10096;SDS011;5087;42.662;23.466;2022-10-17T02:36:33;1.00;;;1.00;;
10096;SDS011;5087;42.662;23.466;2022-10-17T02:39:04;0.97;;;0.97;;
10096;SDS011;5087;42.662;23.466;2022-10-17T02:41:33;0.80;;;0.80;;
10096;SDS011;5087;42.662;23.466;2022-10-17T02:44:02;0.80;;;0.80;;
10096;SDS011;5087;42.662;23.466;2022-10-17T02:46:32;0.70;;;0.70;;
10096;SDS011;5087;42.662;23.466;2022-10-17T02:49:01;0.80;;;0.80;;
10096;SDS011;5087;42.662;23.466;2022-10-17T02:51:35;0.60;;;0.60;;
10096;SDS011;5087;42.662;23.466;2022-10-17T02:54:10;0.60;;;0.60;;
10096;SDS011;5087;42.662;23.466;2022-10-17T02:56:45;0.40;;;0.40;;
10096;SDS011;5087;42.662;23.466;2022-10-17T02:59:16;0.30;;;0.30;;
10096;SDS011;5087;42.662;23.466;2022-10-17T03:01:47;0.50;;;0.50;;
10096;SDS011;5087;42.662;23.466;2022-10-17T03:04:17;0.20;;;0.20;;
10096;SDS011;5087;42.662;23.466;2022-10-17T03:06:45;0.40;;;0.40;;
10096;SDS011;5087;42.662;23.466;2022-10-17T03:09:14;0.20;;;0.20;;
10096;SDS011;5087;42.662;23.466;2022-10-17T03:11:41;0.27;;;0.27;;
10096;SDS011;5087;42.662;23.466;2022-10-17T03:14:09;0.20;;;0.20;;
10096;SDS011;5087;42.662;23.466;2022-10-17T03:16:37;0.20;;;0.20;;
10096;SDS011;5087;42.662;23.466;2022-10-17T03:19:04;0.20;;;0.20;;
10096;SDS011;5087;42.662;23.466;2022-10-17T03:21:34;0.20;;;0.20;;
10096;SDS011;5087;42.662;23.466;2022-10-17T03:24:03;0.20;;;0.20;;
10096;SDS011;5087;42.662;23.466;2022-10-17T03:26:30;0.10;;;0.10;;
10096;SDS011;5087;42.662;23.466;2022-10-17T03:28:58;0.40;;;0.40;;
10096;SDS011;5087;42.662;23.466;2022-10-17T03:31:27;0.20;;;0.20;;
10096;SDS011;5087;42.662;23.466;2022-10-17T03:33:55;0.40;;;0.40;;
10096;SDS011;5087;42.662;23.466;2022-10-17T03:36:25;0.20;;;0.20;;
10096;SDS011;5087;42.662;23.466;2022-10-17T03:38:55;0.20;;;0.20;;
10096;SDS011;5087;42.662;23.466;2022-10-17T03:41:23;0.10;;;0.10;;
10096;SDS011;5087;42.662;23.466;2022-10-17T03:43:51;0.33;;;0.33;;
10096;SDS011;5087;42.662;23.466;2022-10-17T03:46:19;0.20;;;0.20;;
10096;SDS011;5087;42.662;23.466;2022-10-17T03:48:46;0.10;;;0.10;;
10096;SDS011;5087;42.662;23.466;2022-10-17T03:51:14;0.00;;;0.00;;
10096;SDS011;5087;42.662;23.466;2022-10-17T03:53:48;0.10;;;0.10;;
10096;SDS011;5087;42.662;23.466;2022-10-17T03:56:18;0.20;;;0.20;;
10096;SDS011;5087;42.662;23.466;2022-10-17T03:58:54;0.20;;;0.20;;
10096;SDS011;5087;42.662;23.466;2022-10-17T04:01:26;0.20;;;0.20;;
10096;SDS011;5087;42.662;23.466;2022-10-17T04:03:54;0.20;;;0.20;;
10096;SDS011;5087;42.662;23.466;2022-10-17T04:06:29;0.63;;;0.63;;
10096;SDS011;5087;42.662;23.466;2022-10-17T04:08:59;0.20;;;0.20;;
10096;SDS011;5087;42.662;23.466;2022-10-17T04:11:37;0.20;;;0.20;;
10096;SDS011;5087;42.662;23.466;2022-10-17T04:14:04;0.20;;;0.20;;
10096;SDS011;5087;42.662;23.466;2022-10-17T04:16:31;0.20;;;0.20;;
10096;SDS011;5087;42.662;23.466;2022-10-17T04:19:02;0.23;;;0.23;;
10096;SDS011;5087;42.662;23.466;2022-10-17T04:21:35;0.20;;;0.20;;
10096;SDS011;5087;42.662;23.466;2022-10-17T04:24:05;0.30;;;0.30;;
10096;SDS011;5087;42.662;23.466;2022-10-17T04:26:46;0.30;;;0.30;;
10096;SDS011;5087;42.662;23.466;2022-10-17T04:29:15;0.30;;;0.30;;
10096;SDS011;5087;42.662;23.466;2022-10-17T04:31:44;0.20;;;0.20;;
10096;SDS011;5087;42.662;23.466;2022-10-17T04:34:19;0.30;;;0.30;;
10096;SDS011;5087;42.662;23.466;2022-10-17T04:36:46;0.40;;;0.40;;
10096;SDS011;5087;42.662;23.466;2022-10-17T04:39:16;0.17;;;0.17;;
10096;SDS011;5087;42.662;23.466;2022-10-17T04:41:45;0.57;;;0.57;;
10096;SDS011;5087;42.662;23.466;2022-10-17T04:44:13;0.20;;;0.20;;
10096;SDS011;5087;42.662;23.466;2022-10-17T04:46:46;0.10;;;0.10;;
10096;SDS011;5087;42.662;23.466;2022-10-17T04:49:13;0.10;;;0.10;;
10096;SDS011;5087;42.662;23.466;2022-10-17T04:51:44;0.10;;;0.10;;
10096;SDS011;5087;42.662;23.466;2022-10-17T04:54:24;0.10;;;0.10;;
10096;SDS011;5087;42.662;23.466;2022-10-17T04:56:59;0.20;;;0.20;;
10096;SDS011;5087;42.662;23.466;2022-10-17T04:59:28;0.23;;;0.23;;
10096;SDS011;5087;42.662;23.466;2022-10-17T05:02:09;0.30;;;0.30;;
10096;SDS011;5087;42.662;23.466;2022-10-17T05:04:37;0.10;;;0.10;;
10096;SDS011;5087;42.662;23.466;2022-10-17T05:07:05;0.10;;;0.10;;
10096;SDS011;5087;42.662;23.466;2022-10-17T05:09:51;0.73;;;0.73;;
10096;SDS011;5087;42.662;23.466;2022-10-17T05:12:20;1.10;;;1.10;;
10096;SDS011;5087;42.662;23.466;2022-10-17T05:14:47;0.10;;;0.10;;
10096;SDS011;5087;42.662;23.466;2022-10-17T05:17:14;0.10;;;0.10;;
10096;SDS011;5087;42.662;23.466;2022-10-17T05:19:42;0.10;;;0.10;;
10096;SDS011;5087;42.662;23.466;2022-10-17T05:22:09;0.10;;;0.10;;
10096;SDS011;5087;42.662;23.466;2022-10-17T05:24:39;2.97;;;1.17;;
10096;SDS011;5087;42.662;23.466;2022-10-17T05:27:07;0.20;;;0.20;;
10096;SDS011;5087;42.662;23.466;2022-10-17T05:29:36;0.20;;;0.20;;
10096;SDS011;5087;42.662;23.466;2022-10-17T05:32:14;0.30;;;0.30;;
10096;SDS011;5087;42.662;23.466;2022-10-17T05:34:42;0.40;;;0.40;;
10096;SDS011;5087;42.662;23.466;2022-10-17T05:37:09;0.30;;;0.30;;
10096;SDS011;5087;42.662;23.466;2022-10-17T05:39:38;0.30;;;0.30;;
10096;SDS011;5087;42.662;23.466;2022-10-17T05:42:06;0.40;;;0.40;;
10096;SDS011;5087;42.662;23.466;2022-10-17T05:44:35;0.40;;;0.40;;
10096;SDS011;5087;42.662;23.466;2022-10-17T05:47:03;0.60;;;0.60;;
10096;SDS011;5087;42.662;23.466;2022-10-17T05:49:31;0.50;;;0.50;;
10096;SDS011;5087;42.662;23.466;2022-10-17T05:51:58;0.70;;;0.70;;
10096;SDS011;5087;42.662;23.466;2022-10-17T05:54:26;1.00;;;1.00;;
10096;SDS011;5087;42.662;23.466;2022-10-17T05:56:54;1.30;;;1.30;;
10096;SDS011;5087;42.662;23.466;2022-10-17T05:59:26;1.40;;;1.40;;
10096;SDS011;5087;42.662;23.466;2022-10-17T06:02:03;1.80;;;1.80;;
10096;SDS011;5087;42.662;23.466;2022-10-17T06:04:31;1.80;;;1.80;;
10096;SDS011;5087;42.662;23.466;2022-10-17T06:07:00;1.80;;;1.80;;
10096;SDS011;5087;42.662;23.466;2022-10-17T06:09:29;1.80;;;1.80;;
10096;SDS011;5087;42.662;23.466;2022-10-17T06:11:56;1.90;;;1.90;;
10096;SDS011;5087;42.662;23.466;2022-10-17T06:14:23;1.90;;;1.90;;
10096;SDS011;5087;42.662;23.466;2022-10-17T06:16:56;2.07;;;2.07;;
10096;SDS011;5087;42.662;23.466;2022-10-17T06:19:27;2.20;;;2.20;;
10096;SDS011;5087;42.662;23.466;2022-10-17T06:21:55;2.00;;;2.00;;
10096;SDS011;5087;42.662;23.466;2022-10-17T06:24:24;2.10;;;2.10;;
10096;SDS011;5087;42.662;23.466;2022-10-17T06:26:52;2.03;;;2.03;;
10096;SDS011;5087;42.662;23.466;2022-10-17T06:29:20;1.80;;;1.80;;
10096;SDS011;5087;42.662;23.466;2022-10-17T06:31:50;1.90;;;1.90;;
10096;SDS011;5087;42.662;23.466;2022-10-17T06:34:19;2.00;;;2.00;;
10096;SDS011;5087;42.662;23.466;2022-10-17T06:36:48;2.17;;;2.17;;
10096;SDS011;5087;42.662;23.466;2022-10-17T06:39:17;2.40;;;2.40;;
10096;SDS011;5087;42.662;23.466;2022-10-17T06:41:54;2.63;;;2.63;;
10096;SDS011;5087;42.662;23.466;2022-10-17T06:44:35;3.00;;;3.00;;
10096;SDS011;5087;42.662;23.466;2022-10-17T06:47:22;2.90;;;2.90;;
10096;SDS011;5087;42.662;23.466;2022-10-17T06:49:53;2.70;;;2.70;;
10096;SDS011;5087;42.662;23.466;2022-10-17T06:52:31;2.50;;;2.50;;
10096;SDS011;5087;42.662;23.466;2022-10-17T06:55:27;3.13;;;3.13;;
10096;SDS011;5087;42.662;23.466;2022-10-17T06:58:29;3.67;;;3.67;;
10096;SDS011;5087;42.662;23.466;2022-10-17T07:01:09;3.67;;;3.67;;
10096;SDS011;5087;42.662;23.466;2022-10-17T07:03:38;3.50;;;3.50;;
10096;SDS011;5087;42.662;23.466;2022-10-17T07:06:08;3.67;;;3.67;;
10096;SDS011;5087;42.662;23.466;2022-10-17T07:08:37;4.20;;;4.10;;
10096;SDS011;5087;42.662;23.466;2022-10-17T07:11:08;4.30;;;4.20;;
10096;SDS011;5087;42.662;23.466;2022-10-17T07:13:35;4.40;;;4.30;;
10096;SDS011;5087;42.662;23.466;2022-10-17T07:16:03;4.10;;;4.00;;
10096;SDS011;5087;42.662;23.466;2022-10-17T07:18:31;4.00;;;3.90;;
10096;SDS011;5087;42.662;23.466;2022-10-17T07:20:59;3.60;;;3.60;;
10096;SDS011;5087;42.662;23.466;2022-10-17T07:23:26;3.60;;;3.60;;
10096;SDS011;5087;42.662;23.466;2022-10-17T07:25:59;4.50;;;4.40;;
10096;SDS011;5087;42.662;23.466;2022-10-17T07:28:28;4.40;;;4.30;;
10096;SDS011;5087;42.662;23.466;2022-10-17T07:31:02;4.53;;;4.43;;
10096;SDS011;5087;42.662;23.466;2022-10-17T07:33:30;4.20;;;4.10;;
10096;SDS011;5087;42.662;23.466;2022-10-17T07:36:00;4.43;;;4.33;;
10096;SDS011;5087;42.662;23.466;2022-10-17T07:38:29;4.70;;;4.60;;
10096;SDS011;5087;42.662;23.466;2022-10-17T07:40:59;4.80;;;4.70;;
10096;SDS011;5087;42.662;23.466;2022-10-17T07:43:27;4.90;;;4.80;;
10096;SDS011;5087;42.662;23.466;2022-10-17T07:45:55;4.20;;;4.10;;
10096;SDS011;5087;42.662;23.466;2022-10-17T07:48:22;4.60;;;4.50;;
10096;SDS011;5087;42.662;23.466;2022-10-17T07:50:50;5.07;;;4.97;;
10096;SDS011;5087;42.662;23.466;2022-10-17T07:53:18;4.30;;;4.20;;
10096;SDS011;5087;42.662;23.466;2022-10-17T07:55:45;4.60;;;4.50;;
10096;SDS011;5087;42.662;23.466;2022-10-17T07:58:15;5.00;;;4.90;;
10096;SDS011;5087;42.662;23.466;2022-10-17T08:00:42;4.50;;;4.40;;
10096;SDS011;5087;42.662;23.466;2022-10-17T08:03:12;5.53;;;5.23;;
10096;SDS011;5087;42.662;23.466;2022-10-17T08:05:40;3.90;;;3.90;;
10096;SDS011;5087;42.662;23.466;2022-10-17T08:08:07;4.30;;;4.20;;
10096;SDS011;5087;42.662;23.466;2022-10-17T08:10:34;4.33;;;4.13;;
10096;SDS011;5087;42.662;23.466;2022-10-17T08:13:02;3.67;;;3.67;;
10096;SDS011;5087;42.662;23.466;2022-10-17T08:15:31;3.90;;;3.90;;
10096;SDS011;5087;42.662;23.466;2022-10-17T08:17:58;4.20;;;4.10;;
10096;SDS011;5087;42.662;23.466;2022-10-17T08:20:25;4.47;;;4.37;;
10096;SDS011;5087;42.662;23.466;2022-10-17T08:22:53;4.40;;;4.30;;
10096;SDS011;5087;42.662;23.466;2022-10-17T08:25:20;4.10;;;4.00;;
10096;SDS011;5087;42.662;23.466;2022-10-17T08:27:48;4.73;;;4.60;;
10096;SDS011;5087;42.662;23.466;2022-10-17T08:30:15;4.63;;;4.53;;
10096;SDS011;5087;42.662;23.466;2022-10-17T08:32:44;4.50;;;4.40;;
10096;SDS011;5087;42.662;23.466;2022-10-17T08:35:11;4.30;;;4.20;;
10096;SDS011;5087;42.662;23.466;2022-10-17T08:37:39;5.03;;;4.93;;
10096;SDS011;5087;42.662;23.466;2022-10-17T08:40:08;5.10;;;5.00;;
10096;SDS011;5087;42.662;23.466;2022-10-17T08:42:50;4.47;;;4.37;;
10096;SDS011;5087;42.662;23.466;2022-10-17T08:45:31;4.90;;;4.80;;
10096;SDS011;5087;42.662;23.466;2022-10-17T08:48:04;4.40;;;4.30;;
10096;SDS011;5087;42.662;23.466;2022-10-17T08:50:36;4.70;;;4.60;;
10096;SDS011;5087;42.662;23.466;2022-10-17T08:53:09;4.33;;;4.23;;
10096;SDS011;5087;42.662;23.466;2022-10-17T08:55:43;4.50;;;4.40;;
10096;SDS011;5087;42.662;23.466;2022-10-17T08:58:13;4.20;;;4.10;;
10096;SDS011;5087;42.662;23.466;2022-10-17T09:00:45;5.20;;;5.10;;
10096;SDS011;5087;42.662;23.466;2022-10-17T09:03:21;4.60;;;4.50;;
10096;SDS011;5087;42.662;23.466;2022-10-17T09:06:15;4.53;;;4.43;;
10096;SDS011;5087;42.662;23.466;2022-10-17T09:08:55;4.30;;;4.20;;
10096;SDS011;5087;42.662;23.466;2022-10-17T09:11:36;3.97;;;3.87;;
10096;SDS011;5087;42.662;23.466;2022-10-17T09:14:20;3.40;;;3.40;;
10096;SDS011;5087;42.662;23.466;2022-10-17T09:17:11;3.20;;;3.20;;
10096;SDS011;5087;42.662;23.466;2022-10-17T09:19:52;2.70;;;2.70;;
10096;SDS011;5087;42.662;23.466;2022-10-17T09:22:27;2.30;;;2.30;;
10096;SDS011;5087;42.662;23.466;2022-10-17T09:25:01;2.47;;;2.47;;
10096;SDS011;5087;42.662;23.466;2022-10-17T09:27:32;2.77;;;2.67;;
10096;SDS011;5087;42.662;23.466;2022-10-17T09:30:15;2.30;;;2.30;;
10096;SDS011;5087;42.662;23.466;2022-10-17T09:32:49;1.70;;;1.70;;
10096;SDS011;5087;42.662;23.466;2022-10-17T09:35:18;1.90;;;1.90;;
10096;SDS011;5087;42.662;23.466;2022-10-17T09:37:45;2.00;;;2.00;;
10096;SDS011;5087;42.662;23.466;2022-10-17T09:40:15;1.97;;;1.93;;
10096;SDS011;5087;42.662;23.466;2022-10-17T09:42:47;1.80;;;1.80;;
10096;SDS011;5087;42.662;23.466;2022-10-17T09:45:16;2.70;;;2.60;;
10096;SDS011;5087;42.662;23.466;2022-10-17T09:47:50;1.70;;;1.70;;
10096;SDS011;5087;42.662;23.466;2022-10-17T09:50:26;1.60;;;1.60;;
10096;SDS011;5087;42.662;23.466;2022-10-17T09:52:55;1.40;;;1.40;;
10096;SDS011;5087;42.662;23.466;2022-10-17T09:55:28;1.50;;;1.50;;
10096;SDS011;5087;42.662;23.466;2022-10-17T09:58:04;1.30;;;1.30;;
10096;SDS011;5087;42.662;23.466;2022-10-17T10:00:33;1.47;;;1.47;;
10096;SDS011;5087;42.662;23.466;2022-10-17T10:05:59;1.50;;;1.50;;
10096;SDS011;5087;42.662;23.466;2022-10-17T10:08:29;1.43;;;1.43;;
10096;SDS011;5087;42.662;23.466;2022-10-17T10:10:59;1.20;;;1.20;;
10096;SDS011;5087;42.662;23.466;2022-10-17T10:13:29;1.57;;;1.57;;
10096;SDS011;5087;42.662;23.466;2022-10-17T10:18:49;1.70;;;1.70;;
10096;SDS011;5087;42.662;23.466;2022-10-17T10:21:18;1.60;;;1.60;;
10096;SDS011;5087;42.662;23.466;2022-10-17T10:24:02;1.40;;;1.40;;
10096;SDS011;5087;42.662;23.466;2022-10-17T10:26:32;1.70;;;1.70;;
10096;SDS011;5087;42.662;23.466;2022-10-17T10:29:04;1.50;;;1.50;;
10096;SDS011;5087;42.662;23.466;2022-10-17T10:31:45;1.50;;;1.50;;
10096;SDS011;5087;42.662;23.466;2022-10-17T10:34:14;1.30;;;1.30;;
10096;SDS011;5087;42.662;23.466;2022-10-17T10:36:51;1.40;;;1.40;;
10096;SDS011;5087;42.662;23.466;2022-10-17T10:39:24;1.30;;;1.30;;
10096;SDS011;5087;42.662;23.466;2022-10-17T10:41:55;1.30;;;1.30;;
10096;SDS011;5087;42.662;23.466;2022-10-17T10:44:23;1.40;;;1.40;;
10096;SDS011;5087;42.662;23.466;2022-10-17T10:47:05;1.30;;;1.30;;
10096;SDS011;5087;42.662;23.466;2022-10-17T10:49:40;1.30;;;1.30;;
10096;SDS011;5087;42.662;23.466;2022-10-17T10:52:10;1.30;;;1.30;;
10096;SDS011;5087;42.662;23.466;2022-10-17T10:54:50;1.33;;;1.33;;
10096;SDS011;5087;42.662;23.466;2022-10-17T10:57:27;1.30;;;1.30;;
10096;SDS011;5087;42.662;23.466;2022-10-17T10:59:58;1.27;;;1.27;;
10096;SDS011;5087;42.662;23.466;2022-10-17T11:02:32;1.33;;;1.33;;
10096;SDS011;5087;42.662;23.466;2022-10-17T11:05:05;1.30;;;1.30;;
10096;SDS011;5087;42.662;23.466;2022-10-17T11:07:41;1.30;;;1.30;;
10096;SDS011;5087;42.662;23.466;2022-10-17T11:10:14;1.20;;;1.20;;
10096;SDS011;5087;42.662;23.466;2022-10-17T11:12:45;1.67;;;1.67;;
10096;SDS011;5087;42.662;23.466;2022-10-17T11:15:20;1.80;;;1.80;;
10096;SDS011;5087;42.662;23.466;2022-10-17T11:17:54;1.50;;;1.50;;
10096;SDS011;5087;42.662;23.466;2022-10-17T11:20:27;1.50;;;1.50;;
10096;SDS011;5087;42.662;23.466;2022-10-17T11:23:07;1.20;;;1.20;;
10096;SDS011;5087;42.662;23.466;2022-10-17T11:25:45;1.40;;;1.40;;
10096;SDS011;5087;42.662;23.466;2022-10-17T11:28:14;1.30;;;1.30;;
10096;SDS011;5087;42.662;23.466;2022-10-17T11:30:47;1.40;;;1.40;;
10096;SDS011;5087;42.662;23.466;2022-10-17T11:33:23;1.40;;;1.40;;
10096;SDS011;5087;42.662;23.466;2022-10-17T11:35:54;1.20;;;1.20;;
10096;SDS011;5087;42.662;23.466;2022-10-17T11:38:31;1.37;;;1.37;;
10096;SDS011;5087;42.662;23.466;2022-10-17T11:41:07;1.50;;;1.50;;
10096;SDS011;5087;42.662;23.466;2022-10-17T11:43:39;1.30;;;1.30;;
10096;SDS011;5087;42.662;23.466;2022-10-17T11:46:14;1.10;;;1.10;;
10096;SDS011;5087;42.662;23.466;2022-10-17T11:48:50;1.20;;;1.20;;
10096;SDS011;5087;42.662;23.466;2022-10-17T11:51:30;1.10;;;1.10;;
10096;SDS011;5087;42.662;23.466;2022-10-17T11:54:09;1.80;;;1.80;;
10096;SDS011;5087;42.662;23.466;2022-10-17T11:56:41;1.60;;;1.60;;
10096;SDS011;5087;42.662;23.466;2022-10-17T11:59:29;1.20;;;1.20;;
10096;SDS011;5087;42.662;23.466;2022-10-17T12:02:16;1.60;;;1.60;;
10096;SDS011;5087;42.662;23.466;2022-10-17T12:04:53;1.20;;;1.20;;
10096;SDS011;5087;42.662;23.466;2022-10-17T12:07:27;1.33;;;1.33;;
10096;SDS011;5087;42.662;23.466;2022-10-17T12:10:04;1.30;;;1.30;;
10096;SDS011;5087;42.662;23.466;2022-10-17T12:12:43;1.10;;;1.10;;
10096;SDS011;5087;42.662;23.466;2022-10-17T12:15:28;1.40;;;1.40;;
10096;SDS011;5087;42.662;23.466;2022-10-17T12:17:57;1.50;;;1.50;;
10096;SDS011;5087;42.662;23.466;2022-10-17T12:20:31;1.47;;;1.47;;
10096;SDS011;5087;42.662;23.466;2022-10-17T12:23:13;1.50;;;1.50;;
10096;SDS011;5087;42.662;23.466;2022-10-17T12:25:49;1.40;;;1.40;;
10096;SDS011;5087;42.662;23.466;2022-10-17T12:28:21;1.27;;;1.27;;
10096;SDS011;5087;42.662;23.466;2022-10-17T12:30:56;1.40;;;1.40;;
10096;SDS011;5087;42.662;23.466;2022-10-17T12:33:31;1.60;;;1.60;;
10096;SDS011;5087;42.662;23.466;2022-10-17T12:45:48;1.57;;;1.57;;
10096;SDS011;5087;42.662;23.466;2022-10-17T12:51:25;1.47;;;1.47;;
10096;SDS011;5087;42.662;23.466;2022-10-17T12:53:56;1.50;;;1.50;;
10096;SDS011;5087;42.662;23.466;2022-10-17T12:56:33;1.50;;;1.50;;
10096;SDS011;5087;42.662;23.466;2022-10-17T12:59:05;1.50;;;1.50;;
10096;SDS011;5087;42.662;23.466;2022-10-17T13:01:39;1.30;;;1.30;;
10096;SDS011;5087;42.662;23.466;2022-10-17T13:04:10;1.60;;;1.60;;
10096;SDS011;5087;42.662;23.466;2022-10-17T13:06:39;1.60;;;1.60;;
10096;SDS011;5087;42.662;23.466;2022-10-17T13:09:16;1.67;;;1.67;;
10096;SDS011;5087;42.662;23.466;2022-10-17T13:11:49;1.60;;;1.60;;
10096;SDS011;5087;42.662;23.466;2022-10-17T13:14:18;1.70;;;1.70;;
10096;SDS011;5087;42.662;23.466;2022-10-17T13:16:52;1.90;;;1.90;;
10096;SDS011;5087;42.662;23.466;2022-10-17T13:19:22;1.67;;;1.67;;
10096;SDS011;5087;42.662;23.466;2022-10-17T13:21:50;1.60;;;1.60;;
10096;SDS011;5087;42.662;23.466;2022-10-17T13:24:20;1.50;;;1.50;;
10096;SDS011;5087;42.662;23.466;2022-10-17T13:26:49;1.60;;;1.60;;
10096;SDS011;5087;42.662;23.466;2022-10-17T13:29:16;1.60;;;1.60;;
10096;SDS011;5087;42.662;23.466;2022-10-17T13:31:50;2.17;;;1.80;;
10096;SDS011;5087;42.662;23.466;2022-10-17T13:34:20;1.80;;;1.80;;
10096;SDS011;5087;42.662;23.466;2022-10-17T13:36:55;1.60;;;1.60;;
10096;SDS011;5087;42.662;23.466;2022-10-17T13:39:32;1.50;;;1.50;;
10096;SDS011;5087;42.662;23.466;2022-10-17T13:42:02;1.60;;;1.60;;
10096;SDS011;5087;42.662;23.466;2022-10-17T13:44:31;1.60;;;1.60;;
10096;SDS011;5087;42.662;23.466;2022-10-17T13:47:01;1.50;;;1.50;;
10096;SDS011;5087;42.662;23.466;2022-10-17T13:49:30;1.50;;;1.50;;
10096;SDS011;5087;42.662;23.466;2022-10-17T13:52:00;1.57;;;1.57;;
10096;SDS011;5087;42.662;23.466;2022-10-17T13:54:34;1.63;;;1.63;;
10096;SDS011;5087;42.662;23.466;2022-10-17T13:57:03;1.40;;;1.40;;
10096;SDS011;5087;42.662;23.466;2022-10-17T13:59:33;1.30;;;1.30;;
10096;SDS011;5087;42.662;23.466;2022-10-17T14:02:05;1.40;;;1.40;;
10096;SDS011;5087;42.662;23.466;2022-10-17T14:04:39;1.40;;;1.40;;
10096;SDS011;5087;42.662;23.466;2022-10-17T14:07:11;1.60;;;1.60;;
10096;SDS011;5087;42.662;23.466;2022-10-17T14:09:52;2.30;;;2.03;;
10096;SDS011;5087;42.662;23.466;2022-10-17T14:12:19;1.30;;;1.30;;
10096;SDS011;5087;42.662;23.466;2022-10-17T14:14:48;1.50;;;1.50;;
10096;SDS011;5087;42.662;23.466;2022-10-17T14:17:21;1.53;;;1.53;;
10096;SDS011;5087;42.662;23.466;2022-10-17T14:19:50;1.40;;;1.40;;
10096;SDS011;5087;42.662;23.466;2022-10-17T14:22:24;1.50;;;1.50;;
10096;SDS011;5087;42.662;23.466;2022-10-17T14:24:53;1.40;;;1.40;;
10096;SDS011;5087;42.662;23.466;2022-10-17T14:27:28;1.40;;;1.40;;
10096;SDS011;5087;42.662;23.466;2022-10-17T14:29:59;1.40;;;1.40;;
10096;SDS011;5087;42.662;23.466;2022-10-17T14:32:30;1.23;;;1.23;;
10096;SDS011;5087;42.662;23.466;2022-10-17T14:35:00;1.30;;;1.30;;
10096;SDS011;5087;42.662;23.466;2022-10-17T14:37:31;1.30;;;1.30;;
10096;SDS011;5087;42.662;23.466;2022-10-17T14:40:04;1.80;;;1.70;;
10096;SDS011;5087;42.662;23.466;2022-10-17T14:42:33;1.40;;;1.40;;
10096;SDS011;5087;42.662;23.466;2022-10-17T14:45:06;2.63;;;2.53;;
10096;SDS011;5087;42.662;23.466;2022-10-17T14:47:39;2.07;;;2.03;;
10096;SDS011;5087;42.662;23.466;2022-10-17T14:50:16;5.47;;;5.17;;
10096;SDS011;5087;42.662;23.466;2022-10-17T14:52:57;1.80;;;1.80;;
10096;SDS011;5087;42.662;23.466;2022-10-17T14:55:26;1.30;;;1.30;;
10096;SDS011;5087;42.662;23.466;2022-10-17T14:57:56;1.50;;;1.50;;
10096;SDS011;5087;42.662;23.466;2022-10-17T15:00:24;1.40;;;1.40;;
10096;SDS011;5087;42.662;23.466;2022-10-17T15:02:53;1.10;;;1.10;;
10096;SDS011;5087;42.662;23.466;2022-10-17T15:05:21;1.60;;;1.60;;
10096;SDS011;5087;42.662;23.466;2022-10-17T15:07:49;1.50;;;1.50;;
10096;SDS011;5087;42.662;23.466;2022-10-17T15:13:06;1.47;;;1.47;;
10096;SDS011;5087;42.662;23.466;2022-10-17T15:15:34;1.40;;;1.40;;
10096;SDS011;5087;42.662;23.466;2022-10-17T15:18:03;1.40;;;1.40;;
10096;SDS011;5087;42.662;23.466;2022-10-17T15:20:31;1.30;;;1.30;;
10096;SDS011;5087;42.662;23.466;2022-10-17T15:22:59;1.50;;;1.50;;
10096;SDS011;5087;42.662;23.466;2022-10-17T15:25:28;1.53;;;1.53;;
10096;SDS011;5087;42.662;23.466;2022-10-17T15:27:57;1.30;;;1.30;;
10096;SDS011;5087;42.662;23.466;2022-10-17T15:30:28;1.60;;;1.60;;
10096;SDS011;5087;42.662;23.466;2022-10-17T15:32:57;1.63;;;1.63;;
10096;SDS011;5087;42.662;23.466;2022-10-17T15:35:29;2.03;;;2.03;;
10096;SDS011;5087;42.662;23.466;2022-10-17T15:37:56;1.43;;;1.43;;
10096;SDS011;5087;42.662;23.466;2022-10-17T15:40:31;1.60;;;1.60;;